Time;durP1;ratioP1;P1;durP2;ratioP2;P2;SDS_P1;SDS_P2;PMS_P1;PMS_P2;Temp;Humidity;BMP_temperature;BMP_pressure;BME280_temperature;BME280_humidity;BME280_pressure;Samples;Min_cycle;Max_cycle;Signal;HPM_P1;HPM_P2
2021/10/19 00:00:00;;;;;;;11.95;8.93;;;14.10;99.90;;;;;;6215751;23;19996;-87
2021/10/19 00:02:28;;;;;;;10.73;8.18;;;14.20;99.90;;;;;;6216267;23;20557;-87
2021/10/19 00:04:54;;;;;;;12.95;8.48;;;14.10;99.90;;;;;;6216332;23;20420;-88
2021/10/19 00:07:20;;;;;;;10.65;8.18;;;14.20;99.90;;;;;;6217121;23;20067;-87
2021/10/19 00:09:46;;;;;;;9.00;7.00;;;14.20;99.90;;;;;;6217708;23;20665;-87
2021/10/19 00:12:12;;;;;;;9.82;6.72;;;14.20;99.90;;;;;;6219312;23;20003;-87
2021/10/19 00:14:38;;;;;;;9.90;6.40;;;14.20;99.90;;;;;;6217689;23;20020;-87
2021/10/19 00:17:06;;;;;;;8.77;6.53;;;14.20;99.90;;;;;;6243796;23;19996;-86
2021/10/19 00:19:33;;;;;;;7.65;6.13;;;14.20;99.90;;;;;;6218987;23;20028;-87
2021/10/19 00:22:02;;;;;;;7.82;5.93;;;14.20;99.90;;;;;;6218352;23;19996;-87
2021/10/19 00:24:31;;;;;;;7.13;5.63;;;14.10;99.90;;;;;;6218843;23;20024;-86
2021/10/19 00:26:57;;;;;;;7.13;5.38;;;14.10;99.90;;;;;;6193760;23;20004;-86
2021/10/19 00:29:26;;;;;;;10.05;6.72;;;14.10;99.90;;;;;;6218506;23;20055;-87
2021/10/19 00:31:52;;;;;;;8.70;6.43;;;14.10;99.90;;;;;;6217762;23;20012;-88
2021/10/19 00:34:19;;;;;;;8.77;6.60;;;14.00;99.90;;;;;;6244114;23;20004;-87
2021/10/19 00:36:48;;;;;;;8.27;6.32;;;14.00;99.90;;;;;;6217120;23;20000;-87
2021/10/19 00:39:15;;;;;;;8.95;6.50;;;13.90;99.90;;;;;;6216961;23;20120;-86
2021/10/19 00:41:42;;;;;;;9.75;6.68;;;13.80;99.90;;;;;;6217065;23;20004;-88
2021/10/19 00:44:08;;;;;;;10.32;8.05;;;13.70;99.90;;;;;;6244370;23;20004;-87
2021/10/19 00:46:36;;;;;;;11.15;7.32;;;13.60;99.90;;;;;;6218637;23;20027;-87
2021/10/19 00:49:02;;;;;;;10.23;8.38;;;13.60;99.90;;;;;;6218843;23;20007;-86
2021/10/19 00:51:31;;;;;;;10.50;7.97;;;13.60;99.90;;;;;;6219216;23;20134;-87
2021/10/19 00:53:57;;;;;;;9.23;7.30;;;13.60;99.90;;;;;;6245355;23;20050;-87
2021/10/19 00:56:24;;;;;;;8.95;7.80;;;13.60;99.90;;;;;;6218435;23;20424;-86
2021/10/19 00:58:50;;;;;;;11.02;8.20;;;13.60;99.90;;;;;;6217395;23;20786;-87
2021/10/19 01:01:18;;;;;;;9.90;8.10;;;13.60;99.90;;;;;;6218674;23;20000;-86
2021/10/19 01:03:44;;;;;;;11.60;8.70;;;13.60;99.90;;;;;;6218737;23;20007;-88
2021/10/19 01:06:13;;;;;;;11.63;8.27;;;13.60;99.90;;;;;;6243577;23;20003;-88
2021/10/19 01:08:41;;;;;;;11.48;9.10;;;13.60;99.90;;;;;;6216817;23;20066;-85
2021/10/19 01:11:08;;;;;;;11.32;8.93;;;13.60;99.90;;;;;;6218040;23;20079;-86
2021/10/19 01:13:35;;;;;;;12.13;9.68;;;13.70;99.90;;;;;;6217601;23;20008;-87
2021/10/19 01:16:10;;;;;;;13.00;9.73;;;13.70;99.90;;;;;;6244085;23;20011;-87
2021/10/19 01:18:40;;;;;;;12.48;10.32;;;13.70;99.90;;;;;;6235264;23;20004;-87
2021/10/19 01:21:08;;;;;;;10.35;8.70;;;13.70;99.90;;;;;;6218106;23;20007;-88
2021/10/19 01:23:35;;;;;;;15.88;10.70;;;13.70;99.90;;;;;;6218671;23;20000;-87
2021/10/19 01:26:03;;;;;;;12.63;9.65;;;13.70;99.90;;;;;;6218205;23;20016;-87
2021/10/19 01:28:31;;;;;;;10.68;8.60;;;13.70;99.90;;;;;;6217635;23;20087;-88
2021/10/19 01:30:59;;;;;;;10.77;7.97;;;13.80;99.90;;;;;;6217751;23;20435;-88
2021/10/19 01:33:26;;;;;;;11.68;8.13;;;13.80;99.90;;;;;;6192106;23;20008;-87
2021/10/19 01:35:54;;;;;;;11.07;9.18;;;13.80;99.90;;;;;;6217174;23;20075;-89
2021/10/19 01:38:23;;;;;;;12.30;8.32;;;13.70;99.90;;;;;;6217729;23;20000;-88
2021/10/19 01:40:50;;;;;;;11.60;9.05;;;13.80;99.90;;;;;;6221356;23;20079;-88
2021/10/19 01:43:20;;;;;;;10.23;8.70;;;13.80;99.90;;;;;;6221970;23;20000;-87
2021/10/19 01:46:00;;;;;;;13.55;10.15;;;13.80;99.90;;;;;;6221660;23;20443;-87
2021/10/19 01:48:27;;;;;;;11.45;9.45;;;13.80;99.90;;;;;;6248633;23;19992;-88
2021/10/19 01:50:54;;;;;;;11.85;9.60;;;13.80;99.90;;;;;;6196490;23;20300;-87
2021/10/19 01:53:21;;;;;;;11.30;9.55;;;13.90;99.90;;;;;;6221242;23;20043;-88
2021/10/19 01:55:48;;;;;;;12.45;10.15;;;13.90;99.90;;;;;;6221202;23;19996;-87
2021/10/19 01:58:21;;;;;;;12.05;9.35;;;14.00;99.90;;;;;;6221939;23;20304;-87
2021/10/19 02:00:47;;;;;;;13.60;9.50;;;14.00;99.90;;;;;;6221469;23;19996;-87
2021/10/19 02:03:14;;;;;;;11.43;8.95;;;14.00;99.90;;;;;;6248163;23;20004;-87
2021/10/19 02:05:40;;;;;;;11.52;9.15;;;14.00;99.90;;;;;;6221216;23;19996;-88
2021/10/19 02:08:10;;;;;;;10.68;8.52;;;14.00;99.90;;;;;;6248336;23;20016;-87
2021/10/19 02:10:36;;;;;;;10.23;7.80;;;14.00;99.90;;;;;;6221437;23;20000;-87
2021/10/19 02:13:04;;;;;;;9.82;8.20;;;14.10;99.90;;;;;;6195321;23;20083;-88
2021/10/19 02:15:30;;;;;;;11.75;8.60;;;14.10;99.90;;;;;;6245421;23;20027;-87
2021/10/19 02:17:57;;;;;;;9.95;8.85;;;14.10;99.90;;;;;;6246779;23;19996;-87
2021/10/19 02:20:23;;;;;;;11.23;9.23;;;14.10;99.90;;;;;;6220757;23;20045;-87
2021/10/19 02:22:50;;;;;;;11.38;9.43;;;14.10;99.90;;;;;;6220095;23;20335;-87
2021/10/19 02:25:16;;;;;;;13.07;9.82;;;14.10;99.90;;;;;;6246931;23;20004;-86
2021/10/19 02:27:42;;;;;;;11.13;8.50;;;14.10;99.90;;;;;;6246880;23;20277;-86
2021/10/19 02:30:16;;;;;;;11.55;9.63;;;14.10;99.90;;;;;;6194579;23;20000;-86
2021/10/19 02:32:43;;;;;;;11.38;8.85;;;14.10;99.90;;;;;;6219160;23;20008;-86
2021/10/19 02:35:11;;;;;;;11.23;9.75;;;14.10;99.90;;;;;;6246831;23;20054;-86
2021/10/19 02:37:38;;;;;;;14.55;9.95;;;14.10;99.90;;;;;;6220475;23;20000;-86
2021/10/19 02:40:05;;;;;;;12.27;9.25;;;14.20;99.90;;;;;;6220476;23;20078;-86
2021/10/19 02:42:31;;;;;;;12.75;10.43;;;14.20;99.90;;;;;;6220055;23;20007;-86
2021/10/19 02:45:02;;;;;;;12.70;9.98;;;14.20;99.90;;;;;;6220321;23;20417;-86
2021/10/19 02:47:28;;;;;;;12.60;9.90;;;14.20;99.90;;;;;;6220320;23;20000;-86
2021/10/19 02:49:54;;;;;;;11.82;9.18;;;14.20;99.90;;;;;;6220272;23;20000;-86
2021/10/19 02:52:21;;;;;;;10.55;8.43;;;14.20;99.90;;;;;;6220274;23;20031;-86
2021/10/19 02:54:49;;;;;;;10.70;9.05;;;14.20;99.90;;;;;;6220632;23;20011;-86
2021/10/19 02:57:14;;;;;;;9.20;7.70;;;14.20;99.90;;;;;;6246837;23;20003;-86
2021/10/19 02:59:40;;;;;;;11.43;8.70;;;14.30;99.90;;;;;;6220235;23;20331;-87
2021/10/19 03:02:06;;;;;;;8.70;7.30;;;14.30;99.90;;;;;;6246538;23;20436;-86
2021/10/19 03:04:33;;;;;;;13.23;10.23;;;14.30;99.90;;;;;;6219807;23;20079;-86
2021/10/19 03:06:59;;;;;;;12.52;10.73;;;14.30;99.90;;;;;;6219388;23;19992;-85
2021/10/19 03:09:24;;;;;;;14.93;11.10;;;14.30;99.90;;;;;;6220223;23;19992;-86
2021/10/19 03:11:50;;;;;;;12.60;10.95;;;14.40;99.90;;;;;;6220322;23;20000;-87
2021/10/19 03:14:16;;;;;;;11.60;9.10;;;14.40;99.90;;;;;;6219826;23;20004;-86
2021/10/19 03:16:43;;;;;;;9.68;8.48;;;14.40;99.90;;;;;;6220053;23;20004;-87
2021/10/19 03:19:12;;;;;;;13.20;9.70;;;14.40;99.90;;;;;;6195480;23;20020;-86
2021/10/19 03:21:37;;;;;;;13.95;11.20;;;14.40;99.90;;;;;;6246620;23;19992;-86
2021/10/19 03:24:04;;;;;;;15.95;10.07;;;14.40;99.90;;;;;;6219848;23;20071;-87
2021/10/19 03:26:29;;;;;;;13.10;10.20;;;14.40;99.90;;;;;;6246590;23;20049;-85
2021/10/19 03:28:55;;;;;;;12.68;10.52;;;14.50;99.90;;;;;;6246471;23;20038;-86
2021/10/19 03:31:21;;;;;;;10.85;8.48;;;14.40;99.90;;;;;;6219742;23;20003;-86
2021/10/19 03:33:47;;;;;;;10.93;8.55;;;14.40;99.90;;;;;;6246334;23;20004;-88
2021/10/19 03:36:13;;;;;;;12.10;9.38;;;14.30;99.90;;;;;;6220347;23;20015;-86
2021/10/19 03:38:39;;;;;;;13.18;10.40;;;14.30;99.90;;;;;;6220098;23;20414;-87
2021/10/19 03:41:07;;;;;;;15.13;11.13;;;14.30;99.90;;;;;;6220213;23;19996;-86
2021/10/19 03:43:33;;;;;;;12.45;9.85;;;14.30;99.90;;;;;;6195013;23;20008;-87
2021/10/19 03:45:59;;;;;;;10.68;8.65;;;14.20;99.90;;;;;;6219541;23;20508;-87
2021/10/19 03:48:25;;;;;;;11.13;9.30;;;14.20;99.90;;;;;;6219916;23;20010;-87
2021/10/19 03:50:51;;;;;;;11.85;8.80;;;14.20;99.90;;;;;;6195029;23;20404;-87
2021/10/19 03:53:19;;;;;;;11.93;10.30;;;14.20;99.90;;;;;;6246345;23;20435;-87
2021/10/19 03:55:47;;;;;;;12.98;10.90;;;14.20;99.90;;;;;;6219913;23;19992;-86
2021/10/19 03:58:14;;;;;;;12.48;10.55;;;14.20;99.90;;;;;;6219970;23;19997;-87
2021/10/19 04:00:40;;;;;;;11.18;9.10;;;14.20;99.90;;;;;;6169727;23;20316;-87
2021/10/19 04:03:05;;;;;;;12.98;10.43;;;14.20;99.90;;;;;;6246780;23;20029;-87
2021/10/19 04:05:31;;;;;;;13.88;9.88;;;14.20;99.90;;;;;;6220041;23;20055;-87
2021/10/19 04:07:58;;;;;;;16.58;12.35;;;14.20;99.90;;;;;;6219351;23;20049;-87
2021/10/19 04:10:24;;;;;;;13.23;10.13;;;14.30;99.90;;;;;;6219040;23;20027;-87
2021/10/19 04:12:52;;;;;;;12.93;11.07;;;14.30;99.90;;;;;;6219752;23;20409;-87
2021/10/19 04:15:18;;;;;;;12.85;10.82;;;14.30;99.90;;;;;;6219855;23;20432;-87
2021/10/19 04:17:44;;;;;;;12.25;10.63;;;14.40;99.90;;;;;;6219759;23;20003;-87
2021/10/19 04:20:10;;;;;;;13.18;9.88;;;14.40;99.90;;;;;;6219704;23;20004;-86
2021/10/19 04:22:37;;;;;;;13.18;11.55;;;14.40;99.90;;;;;;6246883;23;20027;-87
2021/10/19 04:25:03;;;;;;;12.68;11.27;;;14.40;99.90;;;;;;6219841;23;20000;-88
2021/10/19 04:27:29;;;;;;;12.90;10.60;;;14.40;99.90;;;;;;6220051;23;19996;-87
2021/10/19 04:29:54;;;;;;;11.68;9.60;;;14.40;99.90;;;;;;6195232;23;20006;-87
2021/10/19 04:32:20;;;;;;;10.82;9.30;;;14.50;99.90;;;;;;6207149;23;20087;-87
2021/10/19 04:34:46;;;;;;;11.68;9.57;;;14.50;99.90;;;;;;6189882;23;20000;-88
2021/10/19 04:37:12;;;;;;;11.13;9.23;;;14.50;99.90;;;;;;6216814;23;20376;-88
2021/10/19 04:39:38;;;;;;;11.38;9.93;;;14.50;99.90;;;;;;6190309;23;20083;-88
2021/10/19 04:42:03;;;;;;;12.30;11.00;;;14.50;99.90;;;;;;6164823;23;20448;-86
2021/10/19 04:44:31;;;;;;;13.75;12.27;;;14.50;99.90;;;;;;6189781;23;19996;-87
2021/10/19 04:46:57;;;;;;;13.68;12.18;;;14.50;99.90;;;;;;6216513;23;19993;-87
2021/10/19 04:49:23;;;;;;;13.63;11.23;;;14.50;99.90;;;;;;6189980;23;20004;-88
2021/10/19 04:51:48;;;;;;;14.27;10.93;;;14.50;99.90;;;;;;6189893;23;20352;-88
2021/10/19 04:54:16;;;;;;;13.30;10.68;;;14.50;99.90;;;;;;6189673;23;20043;-88
2021/10/19 04:56:41;;;;;;;12.65;11.05;;;14.50;99.90;;;;;;6191069;23;20009;-87
2021/10/19 04:59:07;;;;;;;13.25;11.85;;;14.50;99.90;;;;;;6191206;23;20004;-87
2021/10/19 05:01:33;;;;;;;13.85;12.43;;;14.40;99.90;;;;;;6166654;23;20023;-87
2021/10/19 05:03:59;;;;;;;15.32;12.63;;;14.30;99.90;;;;;;6191113;23;20027;-88
2021/10/19 05:06:25;;;;;;;13.65;12.02;;;14.30;99.90;;;;;;6191796;23;19997;-87
2021/10/19 05:08:53;;;;;;;14.27;11.80;;;14.20;99.90;;;;;;6191270;23;20010;-88
2021/10/19 05:11:18;;;;;;;14.57;11.77;;;14.20;99.90;;;;;;6166800;23;20317;-87
2021/10/19 05:13:44;;;;;;;14.95;13.35;;;14.20;99.90;;;;;;6191366;23;20004;-87
2021/10/19 05:16:10;;;;;;;13.57;12.13;;;14.20;99.90;;;;;;6192039;23;20324;-88
2021/10/19 05:18:36;;;;;;;16.38;14.00;;;14.10;99.90;;;;;;6191783;23;20286;-88
2021/10/19 05:21:03;;;;;;;15.50;13.90;;;14.10;99.90;;;;;;6191969;23;20455;-88
2021/10/19 05:23:29;;;;;;;15.52;13.82;;;14.10;99.90;;;;;;6218255;23;20055;-87
2021/10/19 05:25:55;;;;;;;14.90;11.48;;;14.10;99.90;;;;;;6191397;23;20356;-88
2021/10/19 05:28:21;;;;;;;13.88;11.95;;;14.10;99.90;;;;;;6191651;23;20405;-87
2021/10/19 05:30:50;;;;;;;13.20;11.80;;;14.10;99.90;;;;;;6191527;23;20135;-88
2021/10/19 05:33:17;;;;;;;13.52;10.25;;;14.10;99.90;;;;;;6215638;23;20015;-88
2021/10/19 05:35:43;;;;;;;13.93;12.43;;;14.10;99.90;;;;;;6222625;23;20000;-88
2021/10/19 05:38:09;;;;;;;13.25;11.65;;;14.10;99.90;;;;;;6197237;23;19996;-89
2021/10/19 05:40:34;;;;;;;13.40;11.20;;;14.10;99.90;;;;;;6221615;23;20411;-88
2021/10/19 05:43:00;;;;;;;13.82;11.20;;;14.10;99.90;;;;;;6222034;23;20001;-89
2021/10/19 05:45:27;;;;;;;13.10;11.70;;;14.10;99.90;;;;;;6221477;23;20053;-89
2021/10/19 05:47:53;;;;;;;16.00;14.00;;;14.10;99.90;;;;;;6196354;23;20012;-89
2021/10/19 05:50:19;;;;;;;14.93;12.73;;;14.10;99.90;;;;;;6196777;23;20317;-90
2021/10/19 05:52:45;;;;;;;14.43;12.93;;;14.10;99.90;;;;;;6197040;23;20000;-90
2021/10/19 05:55:14;;;;;;;13.25;11.77;;;14.10;99.90;;;;;;6196495;23;20042;-90
2021/10/19 05:57:40;;;;;;;16.33;14.57;;;14.10;99.90;;;;;;6248896;23;20416;-89
2021/10/19 06:00:17;;;;;;;15.18;12.77;;;14.10;99.90;;;;;;6221566;23;20024;-89
2021/10/19 06:02:45;;;;;;;13.73;11.70;;;14.10;99.90;;;;;;6221937;23;19996;-90
2021/10/19 06:05:12;;;;;;;12.05;10.20;;;14.10;99.90;;;;;;6221716;23;20000;-90
2021/10/19 06:07:38;;;;;;;11.98;10.20;;;14.10;99.90;;;;;;6221479;23;20062;-90
2021/10/19 06:10:05;;;;;;;10.98;9.80;;;14.10;99.90;;;;;;6196997;23;20412;-89
2021/10/19 06:12:50;;;;;;;;;;;;;;;;;;;;;
2021/10/19 06:15:17;;;;;;;12.18;10.80;;;14.10;99.90;;;;;;6248969;23;20067;-90
2021/10/19 06:17:43;;;;;;;12.50;10.48;;;14.10;99.90;;;;;;6198432;23;20007;-89
2021/10/19 06:20:11;;;;;;;14.57;11.27;;;14.10;99.90;;;;;;6248090;23;19992;-89
2021/10/19 06:22:38;;;;;;;12.00;10.75;;;14.20;99.90;;;;;;6222061;23;20473;-88
2021/10/19 06:25:04;;;;;;;12.38;11.13;;;14.20;99.90;;;;;;6197160;23;20044;-90
2021/10/19 06:27:32;;;;;;;12.07;10.63;;;14.20;99.90;;;;;;6221567;23;19996;-89
2021/10/19 06:29:59;;;;;;;13.23;11.48;;;14.20;99.90;;;;;;6221836;23;19992;-89
2021/10/19 06:32:24;;;;;;;13.18;11.77;;;14.20;99.90;;;;;;6183058;23;20008;-90
2021/10/19 06:34:50;;;;;;;11.98;10.70;;;14.30;99.90;;;;;;6191569;23;20005;-89
2021/10/19 06:37:16;;;;;;;12.15;10.40;;;14.20;99.90;;;;;;6191553;23;20017;-89
2021/10/19 06:39:42;;;;;;;11.88;10.68;;;14.20;99.90;;;;;;6191067;23;20409;-89
2021/10/19 06:42:08;;;;;;;12.25;10.57;;;14.30;99.90;;;;;;6166233;23;20000;-89
2021/10/19 06:44:35;;;;;;;13.32;11.93;;;14.30;99.90;;;;;;6191025;23;20001;-89
2021/10/19 06:47:02;;;;;;;13.10;11.80;;;14.30;99.90;;;;;;6165808;23;20095;-89
2021/10/19 06:49:28;;;;;;;13.38;11.25;;;14.30;99.90;;;;;;6190733;23;20004;-88
2021/10/19 06:51:54;;;;;;;11.50;10.30;;;14.30;99.90;;;;;;6217486;23;20075;-89
2021/10/19 06:54:19;;;;;;;13.98;12.57;;;14.30;99.90;;;;;;6190783;23;20011;-90
2021/10/19 06:56:47;;;;;;;11.10;9.27;;;14.30;99.90;;;;;;6190329;23;20353;-89
2021/10/19 06:59:12;;;;;;;11.32;9.18;;;14.30;99.90;;;;;;6190507;23;20385;-89
2021/10/19 07:01:41;;;;;;;11.20;10.00;;;14.40;99.90;;;;;;6190371;23;19997;-89
2021/10/19 07:04:11;;;;;;;9.75;8.75;;;14.40;99.90;;;;;;6165406;23;20012;-89
2021/10/19 07:06:38;;;;;;;11.65;10.45;;;14.40;99.90;;;;;;6191241;23;20004;-89
2021/10/19 07:09:04;;;;;;;10.88;9.57;;;14.50;99.90;;;;;;6190617;23;20036;-89
2021/10/19 07:11:38;;;;;;;10.30;9.18;;;14.40;99.90;;;;;;6218474;23;20074;-89
2021/10/19 07:14:09;;;;;;;13.18;11.88;;;14.50;99.90;;;;;;6191483;23;20000;-89
2021/10/19 07:16:48;;;;;;;12.82;11.52;;;14.50;99.90;;;;;;6192360;23;20007;-89
2021/10/19 07:19:16;;;;;;;12.65;11.35;;;14.50;99.90;;;;;;6190336;23;20005;-89
2021/10/19 07:21:42;;;;;;;11.43;10.23;;;14.50;99.90;;;;;;6191375;23;20407;-89
2021/10/19 07:24:09;;;;;;;12.57;11.25;;;14.60;99.90;;;;;;6189917;23;20000;-90
2021/10/19 07:26:36;;;;;;;11.35;10.15;;;14.60;99.90;;;;;;6166054;23;20047;-89
2021/10/19 07:29:02;;;;;;;12.82;11.32;;;14.60;99.90;;;;;;6192870;23;20003;-89
2021/10/19 07:31:28;;;;;;;11.55;10.35;;;14.60;99.90;;;;;;6192999;23;20317;-90
2021/10/19 07:33:55;;;;;;;10.98;9.82;;;14.70;99.90;;;;;;6219922;23;20004;-89
2021/10/19 07:36:22;;;;;;;11.32;10.20;;;14.70;99.90;;;;;;6220909;23;20004;-89
2021/10/19 07:38:52;;;;;;;14.25;12.63;;;14.70;99.90;;;;;;6195609;23;20001;-89
2021/10/19 07:41:18;;;;;;;14.07;12.57;;;14.70;99.90;;;;;;6196570;23;20487;-89
2021/10/19 07:43:43;;;;;;;11.98;10.68;;;14.70;99.90;;;;;;6195747;23;20004;-89
2021/10/19 07:46:12;;;;;;;12.57;11.30;;;14.80;99.90;;;;;;6220748;23;19996;-89
2021/10/19 07:48:37;;;;;;;11.25;10.07;;;14.80;99.90;;;;;;6220438;23;20480;-90
2021/10/19 07:51:03;;;;;;;11.52;9.77;;;14.80;99.90;;;;;;6220808;23;20062;-89
2021/10/19 07:53:29;;;;;;;11.43;10.23;;;14.80;99.90;;;;;;6220467;23;20004;-89
2021/10/19 07:55:54;;;;;;;12.60;11.27;;;14.90;99.90;;;;;;6247198;23;20053;-89
2021/10/19 07:58:20;;;;;;;9.88;8.88;;;14.90;99.90;;;;;;6247153;23;20007;-90
2021/10/19 08:00:46;;;;;;;15.13;13.30;;;14.90;99.90;;;;;;6219798;23;20022;-90
2021/10/19 08:03:12;;;;;;;14.10;12.60;;;14.90;99.90;;;;;;6220484;23;19999;-90
2021/10/19 08:05:41;;;;;;;11.65;10.45;;;15.00;99.90;;;;;;6195594;23;20027;-90
2021/10/19 08:08:12;;;;;;;12.38;11.02;;;15.00;99.90;;;;;;6220819;23;20312;-89
2021/10/19 08:10:41;;;;;;;14.75;13.25;;;15.00;99.90;;;;;;6220760;23;20286;-89
2021/10/19 08:13:09;;;;;;;13.38;12.00;;;15.10;99.90;;;;;;6247502;23;20070;-90
2021/10/19 08:15:35;;;;;;;19.20;17.15;;;15.10;99.90;;;;;;6220589;23;20035;-89
2021/10/19 08:18:03;;;;;;;15.85;13.95;;;15.10;99.90;;;;;;6195077;23;20008;-89
2021/10/19 08:20:32;;;;;;;13.68;12.38;;;15.10;99.90;;;;;;6220499;23;20019;-90
2021/10/19 08:22:58;;;;;;;13.00;11.65;;;15.10;99.90;;;;;;6245995;23;20003;-90
2021/10/19 08:25:24;;;;;;;12.63;11.35;;;15.20;99.90;;;;;;6195561;23;20028;-90
2021/10/19 08:27:51;;;;;;;12.50;11.13;;;15.20;99.90;;;;;;6247384;23;20004;-90
2021/10/19 08:30:20;;;;;;;12.02;10.82;;;15.30;99.90;;;;;;6195984;23;20003;-90
2021/10/19 08:32:49;;;;;;;14.27;12.88;;;15.20;99.90;;;;;;6221842;23;20004;-91
2021/10/19 08:35:15;;;;;;;14.68;13.23;;;15.30;99.90;;;;;;6222249;23;20008;-90
2021/10/19 08:37:42;;;;;;;15.45;13.80;;;15.30;99.90;;;;;;6219448;23;20042;-89
2021/10/19 08:40:10;;;;;;;14.38;12.90;;;15.30;99.90;;;;;;6219809;23;20051;-90
2021/10/19 08:42:42;;;;;;;14.48;12.23;;;15.40;99.90;;;;;;6219566;23;20131;-90
2021/10/19 08:45:13;;;;;;;13.07;11.77;;;15.40;99.90;;;;;;6246953;23;19999;-91
2021/10/19 08:47:44;;;;;;;14.35;12.85;;;15.50;99.90;;;;;;6219862;23;19996;-91
2021/10/19 08:50:12;;;;;;;15.57;14.07;;;15.50;99.90;;;;;;6247747;23;20004;-90
2021/10/19 08:52:38;;;;;;;13.25;11.95;;;15.60;99.90;;;;;;6195203;23;20011;-91
2021/10/19 08:55:06;;;;;;;12.63;11.32;;;15.60;99.90;;;;;;6219506;23;20000;-92
2021/10/19 08:57:32;;;;;;;12.25;11.10;;;15.60;99.90;;;;;;6219456;23;20007;-91
2021/10/19 09:00:00;;;;;;;13.15;11.77;;;15.70;99.90;;;;;;6220403;23;20000;-90
2021/10/19 09:02:39;;;;;;;12.27;11.07;;;15.70;99.90;;;;;;6218445;23;19996;-90
2021/10/19 09:05:18;;;;;;;13.05;11.75;;;15.70;99.90;;;;;;6219000;23;20011;-90
2021/10/19 09:08:04;;;;;;;12.32;11.13;;;15.80;99.90;;;;;;6196078;23;20092;-90
2021/10/19 09:10:42;;;;;;;12.82;11.52;;;15.80;99.90;;;;;;6220515;23;20006;-91
2021/10/19 09:13:13;;;;;;;11.38;10.27;;;15.80;99.90;;;;;;6196135;23;20111;-90
2021/10/19 09:15:42;;;;;;;11.60;10.40;;;15.80;99.90;;;;;;6195571;23;20087;-90
2021/10/19 09:18:12;;;;;;;11.82;10.63;;;15.90;99.90;;;;;;6220291;23;20484;-90
2021/10/19 09:20:53;;;;;;;11.25;10.15;;;15.90;99.90;;;;;;6195778;23;20086;-90
2021/10/19 09:23:27;;;;;;;10.57;9.57;;;15.90;99.90;;;;;;6222503;23;20006;-90
2021/10/19 09:25:54;;;;;;;9.35;8.43;;;15.90;99.90;;;;;;6220164;23;20004;-90
2021/10/19 09:28:39;;;;;;;10.43;8.77;;;16.00;99.90;;;;;;6196289;23;20069;-91
2021/10/19 09:31:06;;;;;;;10.07;8.88;;;16.00;99.90;;;;;;6222022;23;20004;-90
2021/10/19 09:33:32;;;;;;;9.57;8.10;;;16.00;99.90;;;;;;6170142;23;20522;-91
2021/10/19 09:35:59;;;;;;;8.02;7.22;;;16.00;99.90;;;;;;6191799;23;20000;-91
2021/10/19 09:38:26;;;;;;;8.00;7.20;;;16.00;99.90;;;;;;6192989;23;20004;-91
2021/10/19 09:40:54;;;;;;;7.35;6.65;;;16.00;99.90;;;;;;6220556;23;20067;-91
2021/10/19 09:43:22;;;;;;;7.70;6.90;;;16.10;99.90;;;;;;6195809;23;20019;-90
2021/10/19 09:45:52;;;;;;;8.70;6.75;;;16.10;99.90;;;;;;6218153;23;20115;-92
2021/10/19 09:48:26;;;;;;;6.80;5.82;;;16.10;99.90;;;;;;6167910;23;20015;-90
2021/10/19 09:50:53;;;;;;;7.38;6.63;;;16.10;99.90;;;;;;6192198;23;20001;-91
2021/10/19 09:53:20;;;;;;;7.80;7.00;;;16.10;99.90;;;;;;6191164;23;20023;-92
2021/10/19 09:55:51;;;;;;;7.30;6.50;;;16.10;99.90;;;;;;6191990;23;20401;-91
2021/10/19 09:58:19;;;;;;;6.32;5.72;;;16.10;99.90;;;;;;6191794;23;20397;-91
2021/10/19 10:00:45;;;;;;;7.30;6.60;;;16.20;99.90;;;;;;6188780;23;20012;-91
2021/10/19 10:03:12;;;;;;;6.53;5.90;;;16.20;99.90;;;;;;6216024;23;19996;-91
2021/10/19 10:05:39;;;;;;;6.13;5.53;;;16.20;99.90;;;;;;6190239;23;20028;-90
2021/10/19 10:08:10;;;;;;;6.88;6.18;;;16.30;99.90;;;;;;6189605;23;20298;-91
2021/10/19 10:10:36;;;;;;;5.80;5.22;;;16.30;99.90;;;;;;6187360;23;20055;-92
2021/10/19 10:13:07;;;;;;;5.22;4.72;;;16.30;99.90;;;;;;6189189;23;20011;-91
2021/10/19 10:15:35;;;;;;;5.75;4.70;;;16.30;99.90;;;;;;6189393;23;20001;-91
2021/10/19 10:18:07;;;;;;;5.55;5.05;;;16.30;99.90;;;;;;6189181;23;20445;-91
2021/10/19 10:20:44;;;;;;;5.25;4.47;;;16.30;99.90;;;;;;6189148;23;20309;-91
2021/10/19 10:23:17;;;;;;;5.13;4.55;;;16.30;99.90;;;;;;6189768;23;20028;-90
2021/10/19 10:25:44;;;;;;;6.07;5.45;;;16.30;99.90;;;;;;6216564;23;20009;-92
2021/10/19 10:28:31;;;;;;;5.65;5.15;;;16.40;99.90;;;;;;6192977;23;20020;-91
2021/10/19 10:31:00;;;;;;;6.10;5.00;;;16.40;99.90;;;;;;6189052;23;20003;-92
2021/10/19 10:34:02;;;;;;;6.35;5.72;;;16.40;99.90;;;;;;6190028;23;20083;-91
2021/10/19 10:36:42;;;;;;;7.10;6.32;;;16.50;99.90;;;;;;6218648;23;20496;-91
2021/10/19 10:39:08;;;;;;;8.60;7.28;;;16.50;99.90;;;;;;6194587;23;20003;-91
2021/10/19 10:41:39;;;;;;;8.80;7.82;;;16.50;99.90;;;;;;6217930;23;20001;-91
2021/10/19 10:44:09;;;;;;;8.65;7.72;;;16.50;99.90;;;;;;6223976;23;19996;-90
2021/10/19 10:46:35;;;;;;;8.18;7.38;;;16.60;99.90;;;;;;6218926;23;20000;-91
2021/10/19 10:49:01;;;;;;;8.40;7.13;;;16.60;99.90;;;;;;6218275;23;20004;-91
2021/10/19 10:51:36;;;;;;;8.35;6.65;;;16.60;99.90;;;;;;6218786;23;19996;-90
2021/10/19 10:54:02;;;;;;;8.75;7.32;;;16.70;99.90;;;;;;6218263;23;20523;-91
2021/10/19 10:56:51;;;;;;;10.52;7.82;;;16.70;99.90;;;;;;6193965;23;20035;-91
2021/10/19 10:59:32;;;;;;;9.88;8.70;;;16.80;99.90;;;;;;6213662;23;20023;-92
2021/10/19 11:02:09;;;;;;;9.55;8.05;;;16.80;99.90;;;;;;6246982;23;20023;-92
2021/10/19 11:04:48;;;;;;;9.98;8.82;;;16.80;99.90;;;;;;6217650;23;20007;-91
2021/10/19 11:07:43;;;;;;;9.82;8.25;;;16.80;99.90;;;;;;6218885;23;19998;-92
2021/10/19 11:10:15;;;;;;;10.88;9.15;;;16.80;99.90;;;;;;6215457;23;20401;-92
2021/10/19 11:12:42;;;;;;;12.65;10.93;;;16.80;99.90;;;;;;6219011;23;20000;-92
2021/10/19 11:15:17;;;;;;;11.82;9.93;;;16.90;99.90;;;;;;6219044;23;20400;-91
2021/10/19 11:17:53;;;;;;;13.68;11.70;;;16.90;99.90;;;;;;6218463;23;20511;-91
2021/10/19 11:20:26;;;;;;;13.07;11.70;;;17.00;99.90;;;;;;6245893;23;19992;-91
2021/10/19 11:22:52;;;;;;;14.05;12.35;;;17.10;99.90;;;;;;6245987;23;20396;-91
2021/10/19 11:25:20;;;;;;;12.55;11.23;;;17.10;99.90;;;;;;6245111;23;20050;-92
2021/10/19 11:27:48;;;;;;;12.27;10.80;;;17.20;99.90;;;;;;6194256;23;20004;-92
2021/10/19 11:30:15;;;;;;;13.15;11.07;;;17.30;99.90;;;;;;6218235;23;20091;-91
2021/10/19 11:32:43;;;;;;;14.68;11.95;;;17.30;99.90;;;;;;6201392;23;20012;-92
2021/10/19 11:35:09;;;;;;;13.90;12.18;;;17.30;99.90;;;;;;6214970;23;20131;-91
2021/10/19 11:37:38;;;;;;;12.30;11.00;;;17.30;99.90;;;;;;6214335;23;20007;-93
2021/10/19 11:40:12;;;;;;;14.93;12.00;;;17.30;99.90;;;;;;6188530;23;20412;-92
2021/10/19 11:42:46;;;;;;;13.05;11.02;;;17.30;99.90;;;;;;6188383;23;20060;-91
2021/10/19 11:45:16;;;;;;;14.98;11.63;;;17.30;99.90;;;;;;6189193;23;20004;-92
2021/10/19 11:47:46;;;;;;;13.82;10.80;;;17.30;99.90;;;;;;6188844;23;20027;-92
2021/10/19 11:50:14;;;;;;;13.80;12.00;;;17.30;99.90;;;;;;6188416;23;19993;-90
2021/10/19 11:52:41;;;;;;;17.27;13.75;;;17.40;99.90;;;;;;6187503;23;19996;-91
2021/10/19 11:55:09;;;;;;;17.00;13.35;;;17.40;99.90;;;;;;6188203;23;20001;-89
2021/10/19 11:57:38;;;;;;;14.70;12.63;;;17.50;99.90;;;;;;6188879;23;20004;-90
2021/10/19 12:00:08;;;;;;;19.48;15.23;;;17.50;99.90;;;;;;6164180;23;20647;-89
2021/10/19 12:02:35;;;;;;;18.52;14.60;;;17.50;99.90;;;;;;6209907;23;19996;-90
2021/10/19 12:05:08;;;;;;;19.45;15.43;;;17.50;99.90;;;;;;6184506;23;20019;-90
2021/10/19 12:07:35;;;;;;;18.23;14.68;;;17.50;99.90;;;;;;6185442;23;20004;-91
2021/10/19 12:10:14;;;;;;;16.23;13.18;;;17.50;99.90;;;;;;6186973;23;20043;-91
2021/10/19 12:12:54;;;;;;;14.73;12.25;;;17.50;99.90;;;;;;6186063;23;20107;-89
2021/10/19 12:15:27;;;;;;;16.30;13.70;;;17.40;99.90;;;;;;6186659;23;20009;-89
2021/10/19 12:18:17;;;;;;;16.13;13.43;;;17.40;99.90;;;;;;6186596;23;20009;-91
2021/10/19 12:20:48;;;;;;;15.63;13.32;;;17.40;99.90;;;;;;6174973;23;20644;-90
2021/10/19 12:23:18;;;;;;;17.10;13.68;;;17.30;99.90;;;;;;6185904;23;20045;-89
2021/10/19 12:25:52;;;;;;;16.60;14.18;;;17.30;99.90;;;;;;6185430;23;20004;-89
2021/10/19 12:28:21;;;;;;;16.27;13.88;;;17.30;99.90;;;;;;6186477;23;20004;-89
2021/10/19 12:30:50;;;;;;;15.00;13.25;;;17.30;99.90;;;;;;6185688;23;20013;-89
2021/10/19 12:33:24;;;;;;;14.85;12.50;;;17.30;99.90;;;;;;6208871;23;20024;-90
2021/10/19 12:35:55;;;;;;;16.30;12.82;;;17.30;99.90;;;;;;6215286;23;20099;-89
2021/10/19 12:38:42;;;;;;;14.75;12.98;;;17.30;99.90;;;;;;6216615;23;20054;-88
2021/10/19 12:41:13;;;;;;;16.13;12.82;;;17.30;99.90;;;;;;6215651;23;20066;-88